createdAt,value
2017-11-06T00:00:16.983Z,1.9
2017-11-06T00:02:16.808Z,1.4
2017-11-06T00:04:16.619Z,1.6
2017-11-06T00:06:17.454Z,1.8
2017-11-06T00:08:17.294Z,1.5
2017-11-06T00:10:17.144Z,1.4
2017-11-06T00:12:20.964Z,1.5
2017-11-06T00:14:16.811Z,1.7
2017-11-06T00:16:17.621Z,1.7
2017-11-06T00:18:18.455Z,2
2017-11-06T00:20:21.253Z,1.5
2017-11-06T00:22:17.097Z,1.8
2017-11-06T00:24:16.933Z,1.9
2017-11-06T00:26:17.761Z,1.8
2017-11-06T00:28:20.542Z,1.3
2017-11-06T00:30:17.406Z,1.5
2017-11-06T00:32:17.227Z,1.5
2017-11-06T00:34:21.017Z,1.6
2017-11-06T00:36:17.857Z,1.7
2017-11-06T00:38:16.694Z,1.6
2017-11-06T00:40:17.538Z,1.2
2017-11-06T00:42:21.350Z,1.3
2017-11-06T00:44:17.212Z,1.4
2017-11-06T00:46:17.040Z,1.6
2017-11-06T00:48:17.857Z,1.6
2017-11-06T00:50:17.696Z,2.1
2017-11-06T00:52:21.499Z,1.6
2017-11-06T00:54:17.344Z,1.5
2017-11-06T00:56:17.170Z,1.5
2017-11-06T00:58:16.989Z,1.5
2017-11-06T01:00:20.765Z,1.5
2017-11-06T01:02:16.618Z,1.5
2017-11-06T01:04:21.401Z,1.5
2017-11-06T01:06:17.253Z,1.6
2017-11-06T01:08:17.082Z,1.9
2017-11-06T01:10:17.907Z,1.5
2017-11-06T01:12:20.706Z,1.6
2017-11-06T01:14:21.537Z,1.8
2017-11-06T01:16:17.346Z,1.7
2017-11-06T01:18:18.135Z,1.5
2017-11-06T01:20:20.954Z,2.4
2017-11-06T01:22:20.757Z,1.9
2017-11-06T01:24:16.578Z,2.1
2017-11-06T01:26:17.396Z,2.1
2017-11-06T01:28:18.185Z,2.2
2017-11-06T01:30:17.996Z,1.9
2017-11-06T01:32:17.781Z,2.6
2017-11-06T01:34:16.594Z,2.3
2017-11-06T01:36:17.385Z,1.8
2017-11-06T01:38:21.200Z,2.4
2017-11-06T01:40:18.017Z,1.9
2017-11-06T01:42:17.803Z,2.1
2017-11-06T01:44:20.603Z,2.5
2017-11-06T01:46:17.436Z,2.5
2017-11-06T01:48:21.218Z,1.9
2017-11-06T01:50:17.056Z,2
2017-11-06T01:52:20.855Z,2.3
2017-11-06T01:54:16.660Z,2
2017-11-06T01:56:17.469Z,2.1
2017-11-06T01:58:17.298Z,2.2
2017-11-06T02:00:18.134Z,2.7
2017-11-06T02:02:17.923Z,2.1
2017-11-06T02:04:20.726Z,2.5
2017-11-06T02:06:17.556Z,2.4
2017-11-06T02:08:21.382Z,2.2
2017-11-06T02:10:17.188Z,2
2017-11-06T02:12:20.983Z,2.3
2017-11-06T02:14:16.823Z,2.2
2017-11-06T02:16:17.609Z,2.3
2017-11-06T02:18:18.422Z,2.9
2017-11-06T02:20:17.252Z,2.5
2017-11-06T02:22:21.050Z,2.3
2017-11-06T02:24:20.837Z,2.2
2017-11-06T02:26:17.655Z,2.7
2017-11-06T02:28:21.458Z,3
2017-11-06T02:30:21.263Z,2.8
2017-11-06T02:32:21.087Z,2.6
2017-11-06T02:34:20.858Z,2.2
2017-11-06T02:36:17.702Z,2.3
2017-11-06T02:38:17.490Z,2.6
2017-11-06T02:40:17.326Z,3
2017-11-06T02:42:18.088Z,1.8
2017-11-06T02:44:16.898Z,2
2017-11-06T02:46:17.723Z,2.5
2017-11-06T02:48:20.521Z,2
2017-11-06T02:50:21.342Z,2.1
2017-11-06T02:52:18.141Z,2.1
2017-11-06T02:54:16.981Z,2.2
2017-11-06T02:56:17.798Z,2.5
2017-11-06T02:58:17.599Z,2.6
2017-11-06T03:00:18.456Z,2.4
2017-11-06T03:02:18.239Z,2.4
2017-11-06T03:04:21.066Z,2.1
2017-11-06T03:06:17.871Z,2.1
2017-11-06T03:08:20.664Z,2.3
2017-11-06T03:10:17.471Z,2
2017-11-06T03:12:17.307Z,2.2
2017-11-06T03:14:21.099Z,2.1
2017-11-06T03:16:16.936Z,2.1
2017-11-06T03:18:17.765Z,1.7
2017-11-06T03:20:20.565Z,1.7
2017-11-06T03:22:21.382Z,2.2
2017-11-06T03:24:18.213Z,1.9
2017-11-06T03:26:17.015Z,1.9
2017-11-06T03:28:17.855Z,2
2017-11-06T03:30:17.680Z,1.9
2017-11-06T03:32:18.451Z,1.5
2017-11-06T03:34:18.281Z,1.6
2017-11-06T03:36:17.106Z,2.1
2017-11-06T03:38:20.909Z,2.1
2017-11-06T03:40:17.748Z,2
2017-11-06T03:42:16.587Z,2.3
2017-11-06T03:44:17.404Z,2.1
2017-11-06T03:46:17.232Z,2.1
2017-11-06T03:48:21.045Z,1.6
2017-11-06T03:50:16.883Z,2.2
2017-11-06T03:52:20.684Z,1.5
2017-11-06T03:54:17.526Z,1.8
2017-11-06T03:56:21.318Z,1.8
2017-11-06T03:58:17.163Z,2.3
2017-11-06T04:00:20.971Z,1.8
2017-11-06T04:02:16.828Z,1.3
2017-11-06T04:04:17.650Z,1.9
2017-11-06T04:06:18.446Z,2
2017-11-06T04:08:17.270Z,1.7
2017-11-06T04:10:17.103Z,1.9
2017-11-06T04:12:17.899Z,2
2017-11-06T04:14:17.739Z,1.9
2017-11-06T04:16:17.555Z,2
2017-11-06T04:18:18.380Z,2.2
2017-11-06T04:20:18.191Z,1.7
2017-11-06T04:22:17.999Z,1.9
2017-11-06T04:24:16.841Z,1.9
2017-11-06T04:26:16.637Z,1.7
2017-11-06T04:28:21.425Z,2
2017-11-06T04:30:17.251Z,1.8
2017-11-06T04:32:17.093Z,2
2017-11-06T04:34:17.896Z,2
2017-11-06T04:36:17.699Z,2
2017-11-06T04:38:21.511Z,1.9
2017-11-06T04:40:17.331Z,1.7
2017-11-06T04:42:18.144Z,1.7
2017-11-06T04:44:20.958Z,1.8
2017-11-06T04:46:17.761Z,1.7
2017-11-06T04:48:20.599Z,2.1
2017-11-06T04:50:18.397Z,2.2
2017-11-06T04:52:21.190Z,1.8
2017-11-06T04:54:21.018Z,2.5
2017-11-06T04:56:16.842Z,2.7
2017-11-06T04:58:20.623Z,2
2017-11-06T05:00:21.445Z,2.1
2017-11-06T05:02:17.276Z,2.1
2017-11-06T05:04:21.072Z,2.4
2017-11-06T05:06:16.888Z,2.5
2017-11-06T05:08:20.673Z,1.9
2017-11-06T05:10:17.504Z,2.1
2017-11-06T05:12:21.302Z,1.9
2017-11-06T05:14:21.114Z,2.3
2017-11-06T05:16:17.918Z,2.6
2017-11-06T05:18:17.739Z,1.9
2017-11-06T05:20:17.547Z,2
2017-11-06T05:22:18.317Z,2.3
2017-11-06T05:24:21.113Z,2.3
2017-11-06T05:26:20.933Z,2.2
2017-11-06T05:28:20.740Z,2.4
2017-11-06T05:30:17.547Z,2.3
2017-11-06T05:32:18.343Z,2.2
2017-11-06T05:34:21.157Z,1.9
2017-11-06T05:36:17.972Z,2.1
2017-11-06T05:38:17.753Z,3.1
2017-11-06T05:40:17.553Z,2.3
2017-11-06T05:42:21.343Z,1.9
2017-11-06T05:44:18.136Z,2.3
2017-11-06T05:46:16.951Z,2.2
2017-11-06T05:48:17.729Z,1.9
2017-11-06T05:50:17.526Z,2.3
2017-11-06T05:52:18.324Z,1.9
2017-11-06T05:54:18.089Z,2.3
2017-11-06T05:56:16.906Z,1.9
2017-11-06T05:58:17.688Z,1.9
2017-11-06T06:00:21.453Z,2
2017-11-06T06:02:17.265Z,2.4
2017-11-06T06:04:18.040Z,2.5
2017-11-06T06:06:16.856Z,2.8
2017-11-06T06:08:17.623Z,2.1
2017-11-06T06:10:17.421Z,2.2
2017-11-06T06:12:18.221Z,1.9
2017-11-06T06:14:18.002Z,2.3
2017-11-06T06:16:17.783Z,2
2017-11-06T06:18:17.573Z,2.3
2017-11-06T06:20:18.361Z,2.6
2017-11-06T06:22:18.136Z,2.1
2017-11-06T06:24:17.931Z,2.5
2017-11-06T06:26:17.711Z,2.6
2017-11-06T06:28:18.473Z,2.4
2017-11-06T06:30:21.247Z,2.5
2017-11-06T06:32:18.020Z,2.3
2017-11-06T06:34:20.816Z,3
2017-11-06T06:36:17.586Z,2.7
2017-11-06T06:38:18.366Z,2.4
2017-11-06T06:40:17.150Z,2.1
2017-11-06T06:42:17.908Z,2.2
2017-11-06T06:44:17.692Z,2.5
2017-11-06T06:46:17.453Z,2.2
2017-11-06T06:48:18.236Z,2.3
2017-11-06T06:50:20.989Z,2.4
2017-11-06T06:52:20.786Z,2.7
2017-11-06T06:54:17.579Z,2.5
2017-11-06T06:56:17.391Z,2.5
2017-11-06T06:58:18.166Z,1.9
2017-11-06T07:00:17.949Z,2.6
2017-11-06T07:02:17.713Z,2.4
2017-11-06T07:04:21.505Z,2.3
2017-11-06T07:06:17.313Z,2.7
2017-11-06T07:08:18.103Z,2.8
2017-11-06T07:10:17.902Z,2.1
2017-11-06T07:12:17.709Z,2.8
2017-11-06T07:14:18.499Z,2.6
2017-11-06T07:16:17.285Z,2.7
2017-11-06T07:18:18.093Z,3.1
2017-11-06T07:20:20.881Z,2.8
2017-11-06T07:22:20.695Z,3
2017-11-06T07:24:21.479Z,2.6
2017-11-06T07:26:17.314Z,3.2
2017-11-06T07:28:21.098Z,3.1
2017-11-06T07:30:17.892Z,3
2017-11-06T07:32:20.669Z,2.9
2017-11-06T07:34:17.474Z,3
2017-11-06T07:36:17.258Z,2.5
2017-11-06T07:38:21.037Z,3.2
2017-11-06T07:40:17.852Z,2.8
2017-11-06T07:42:20.618Z,2.8
2017-11-06T07:44:17.427Z,3.6
2017-11-06T07:46:17.224Z,3.4
2017-11-06T07:48:18.008Z,2.8
2017-11-06T07:50:17.793Z,3
2017-11-06T07:52:17.572Z,3.3
2017-11-06T07:54:17.384Z,3.2
2017-11-06T07:56:17.183Z,2.4
2017-11-06T07:58:20.957Z,3.4
2017-11-06T08:00:20.753Z,3.1
2017-11-06T08:02:20.551Z,2.9
2017-11-06T08:04:18.335Z,3.3
2017-11-06T08:06:18.139Z,2.8
2017-11-06T08:08:17.909Z,3.2
2017-11-06T08:10:17.693Z,2.9
2017-11-06T08:12:18.474Z,2.7
2017-11-06T08:14:18.244Z,3.3
2017-11-06T08:16:17.063Z,3.5
2017-11-06T08:18:17.830Z,3.2
2017-11-06T08:20:17.610Z,3
2017-11-06T08:22:18.397Z,3.9
2017-11-06T08:24:18.183Z,3
2017-11-06T08:26:20.954Z,2.8
2017-11-06T08:28:17.760Z,2.8
2017-11-06T08:30:17.552Z,3.1
2017-11-06T08:32:18.353Z,3
2017-11-06T08:34:18.139Z,3.1
2017-11-06T08:36:16.930Z,3.1
2017-11-06T08:38:17.709Z,3.4
2017-11-06T08:40:17.519Z,3.4
2017-11-06T08:42:18.315Z,3.8
2017-11-06T08:44:21.095Z,2.9
2017-11-06T08:46:17.879Z,3.7
2017-11-06T08:48:20.690Z,3.1
2017-11-06T08:50:18.495Z,3.3
2017-11-06T08:52:21.270Z,3.3
2017-11-06T08:54:18.057Z,4.1
2017-11-06T08:56:17.841Z,3.2
2017-11-06T08:58:17.634Z,3.3
2017-11-06T09:00:18.434Z,3.3
2017-11-06T09:02:18.224Z,3.2
2017-11-06T09:04:18.012Z,3.3
2017-11-06T09:06:16.834Z,3.2
2017-11-06T09:08:17.609Z,3.5
2017-11-06T09:10:17.412Z,3.1
2017-11-06T09:12:18.200Z,3.7
2017-11-06T09:14:17.006Z,3.4
2017-11-06T09:16:16.810Z,4.7
2017-11-06T09:18:17.600Z,3.9
2017-11-06T09:20:21.389Z,3.4
2017-11-06T09:22:18.203Z,4
2017-11-06T09:24:18.004Z,3.3
2017-11-06T09:26:17.815Z,3.2
2017-11-06T09:28:17.613Z,3.6
2017-11-06T09:30:21.409Z,2.8
2017-11-06T09:32:21.222Z,3.3
2017-11-06T09:34:17.037Z,3.7
2017-11-06T09:36:17.885Z,3.7
2017-11-06T09:38:20.667Z,3.6
2017-11-06T09:40:17.498Z,3.4
2017-11-06T09:42:21.288Z,3.8
2017-11-06T09:44:17.135Z,3.8
2017-11-06T09:46:17.957Z,3.5
2017-11-06T09:48:20.777Z,3.5
2017-11-06T09:50:20.615Z,3
2017-11-06T09:52:21.415Z,3.3
2017-11-06T09:54:21.236Z,3.4
2017-11-06T09:56:18.072Z,3.1
2017-11-06T09:58:20.899Z,2.5
2017-11-06T10:00:20.728Z,3.1
2017-11-06T10:02:16.571Z,3.9
2017-11-06T10:04:18.382Z,3.4
2017-11-06T10:06:17.217Z,3
2017-11-06T10:08:17.049Z,3.5
2017-11-06T10:10:17.865Z,4.1
2017-11-06T10:12:20.671Z,3.4
2017-11-06T10:14:17.517Z,3.4
2017-11-06T10:16:17.359Z,3.2
2017-11-06T10:18:18.202Z,3.3
2017-11-06T10:20:17.997Z,3.5
2017-11-06T10:22:16.859Z,3.2
2017-11-06T10:24:20.666Z,3
2017-11-06T10:26:17.525Z,3.3
2017-11-06T10:28:17.365Z,3.4
2017-11-06T10:30:18.230Z,3.8
2017-11-06T10:32:17.998Z,3.6
2017-11-06T10:34:16.859Z,3.6
2017-11-06T10:36:16.644Z,3.2
2017-11-06T10:38:17.487Z,3.9
2017-11-06T10:40:17.334Z,3
2017-11-06T10:42:21.123Z,4
2017-11-06T10:44:16.973Z,3.8
2017-11-06T10:46:17.806Z,4
2017-11-06T10:48:16.647Z,3.3
2017-11-06T10:50:21.474Z,3.4
2017-11-06T10:52:21.290Z,4.2
2017-11-06T10:54:17.136Z,3.3
2017-11-06T10:56:17.956Z,4
2017-11-06T10:58:20.769Z,3.6
2017-11-06T11:00:17.613Z,4
2017-11-06T11:02:21.425Z,3.7
2017-11-06T11:04:17.259Z,3.9
2017-11-06T11:06:18.087Z,3.4
2017-11-06T11:08:20.903Z,3.6
2017-11-06T11:10:17.768Z,3.4
2017-11-06T11:12:20.560Z,3.6
2017-11-06T11:14:17.391Z,3.5
2017-11-06T11:16:17.228Z,3.5
2017-11-06T11:18:18.050Z,2.7
2017-11-06T11:20:17.883Z,3.7
2017-11-06T11:22:16.739Z,4
2017-11-06T11:24:20.553Z,3.7
2017-11-06T11:26:17.398Z,3.6
2017-11-06T11:28:18.226Z,3.6
2017-11-06T11:30:21.042Z,3.3
2017-11-06T11:32:16.867Z,3.8
2017-11-06T11:34:16.730Z,3.6
2017-11-06T11:36:17.534Z,3.2
2017-11-06T11:38:17.393Z,3.3
2017-11-06T11:40:17.232Z,3.4
2017-11-06T11:42:17.054Z,3.6
2017-11-06T11:44:16.918Z,2.9
2017-11-06T11:46:17.744Z,2.8
2017-11-06T11:48:16.586Z,3.3
2017-11-06T11:50:17.440Z,2.5
2017-11-06T11:52:17.280Z,2.8
2017-11-06T11:54:17.133Z,2.6
2017-11-06T11:56:16.979Z,2.8
2017-11-06T11:58:16.833Z,2.7
2017-11-06T12:00:16.684Z,2.6
2017-11-06T12:02:17.539Z,2.3
2017-11-06T12:04:17.407Z,2.7
2017-11-06T12:06:17.241Z,2.8
2017-11-06T12:08:17.104Z,2.7
2017-11-06T12:10:17.941Z,2.5
2017-11-06T12:12:16.790Z,2.7
2017-11-06T12:14:16.630Z,3.2
2017-11-06T12:16:17.499Z,2.7
2017-11-06T12:18:18.353Z,2.4
2017-11-06T12:20:18.270Z,2.5
2017-11-06T12:22:18.107Z,2.8
2017-11-06T12:24:16.957Z,2.6
2017-11-06T12:26:16.839Z,2.2
2017-11-06T12:28:16.713Z,2.2
2017-11-06T12:30:17.575Z,2.7
2017-11-06T12:32:17.439Z,2.8
2017-11-06T12:34:17.305Z,2.1
2017-11-06T12:36:17.187Z,2.3
2017-11-06T12:38:17.058Z,2.3
2017-11-06T12:40:17.928Z,2.9
2017-11-06T12:42:16.760Z,2.3
2017-11-06T12:44:16.658Z,2.6
2017-11-06T12:46:17.528Z,1.9
2017-11-06T12:48:17.403Z,2.2
2017-11-06T12:50:17.296Z,1.8
2017-11-06T12:52:17.179Z,1.6
2017-11-06T12:54:17.078Z,1.8
2017-11-06T12:56:16.964Z,2.3
2017-11-06T12:58:16.878Z,2.1
2017-11-06T13:00:16.751Z,1.9
2017-11-06T13:02:16.652Z,2.1
2017-11-06T13:04:17.543Z,1.4
2017-11-06T13:06:17.458Z,1.9
2017-11-06T13:08:17.333Z,1.6
2017-11-06T13:10:17.247Z,1.7
2017-11-06T13:12:17.159Z,1.7
2017-11-06T13:14:17.042Z,2
2017-11-06T13:16:17.946Z,1
2017-11-06T13:18:17.825Z,1.4
2017-11-06T13:20:16.722Z,1.5
2017-11-06T13:22:17.629Z,1.5
2017-11-06T13:24:17.531Z,1.3
2017-11-06T13:26:17.431Z,1.1
2017-11-06T13:28:17.336Z,1.4
2017-11-06T13:30:18.236Z,1.7
2017-11-06T13:32:17.154Z,1.1
2017-11-06T13:34:17.031Z,1.4
2017-11-06T13:36:16.932Z,1.2
2017-11-06T13:38:16.847Z,1.1
2017-11-06T13:40:17.755Z,1.3
2017-11-06T13:42:16.666Z,1.2
2017-11-06T13:44:17.588Z,1.1
2017-11-06T13:46:17.483Z,0.8
2017-11-06T13:48:17.364Z,1.2
2017-11-06T13:50:17.269Z,1.2
2017-11-06T13:52:17.169Z,1.2
2017-11-06T13:54:17.066Z,1
2017-11-06T13:56:16.967Z,1.1
2017-11-06T13:58:16.895Z,1.2
2017-11-06T14:00:16.787Z,1
2017-11-06T14:02:16.686Z,1.3
2017-11-06T14:04:17.574Z,0.9
2017-11-06T14:06:17.466Z,0.8
2017-11-06T14:08:17.362Z,1.1
2017-11-06T14:10:17.251Z,1.5
2017-11-06T14:12:17.145Z,1
2017-11-06T14:14:17.060Z,1.1
2017-11-06T14:16:16.957Z,1.2
2017-11-06T14:18:17.863Z,0.9
2017-11-06T14:20:16.757Z,1.1
2017-11-06T14:22:16.674Z,1.2
2017-11-06T14:24:17.525Z,0.9
2017-11-06T14:26:17.401Z,1.2
2017-11-06T14:28:17.269Z,1.4
2017-11-06T14:30:17.176Z,1
2017-11-06T14:32:17.061Z,1
2017-11-06T14:34:16.938Z,1.2
2017-11-06T14:36:16.800Z,1
2017-11-06T14:38:16.679Z,0.9
2017-11-06T14:40:17.565Z,1
2017-11-06T14:42:17.451Z,1
2017-11-06T14:44:17.350Z,1.1
2017-11-06T14:46:17.205Z,0.8
2017-11-06T14:48:17.100Z,0.9
2017-11-06T14:50:20.965Z,1.4
2017-11-06T14:52:16.867Z,1.1
2017-11-06T14:54:16.766Z,1.1
2017-11-06T14:56:17.648Z,1
2017-11-06T14:58:17.526Z,0.9
2017-11-06T15:00:17.431Z,1.1
2017-11-06T15:02:17.292Z,1
2017-11-06T15:04:17.153Z,1.2
2017-11-06T15:06:17.039Z,0.9
2017-11-06T15:08:16.930Z,1
2017-11-06T15:10:17.791Z,1.4
2017-11-06T15:12:16.677Z,1
2017-11-06T15:14:17.527Z,0.9
2017-11-06T15:16:17.389Z,1.1
2017-11-06T15:18:21.254Z,1
2017-11-06T15:20:21.107Z,0.9
2017-11-06T15:22:16.979Z,1.2
2017-11-06T15:24:16.850Z,1.2
2017-11-06T15:26:16.728Z,1.1
2017-11-06T15:28:16.575Z,1.2
2017-11-06T15:30:17.459Z,1.1
2017-11-06T15:32:17.319Z,1.5
2017-11-06T15:34:17.181Z,1.6
2017-11-06T15:36:18.051Z,1.1
2017-11-06T15:38:20.908Z,1.5
2017-11-06T15:40:17.807Z,1.4
2017-11-06T15:42:16.664Z,1.2
2017-11-06T15:44:17.516Z,1.5
2017-11-06T15:46:17.402Z,1.7
2017-11-06T15:48:17.285Z,1.6
2017-11-06T15:50:17.151Z,1.7
2017-11-06T15:52:17.047Z,1.1
2017-11-06T15:54:16.922Z,1.6
2017-11-06T15:56:17.801Z,1.9
2017-11-06T15:58:16.676Z,1.4
2017-11-06T16:00:17.539Z,2.4
2017-11-06T16:02:17.441Z,1.8
2017-11-06T16:04:17.304Z,1.6
2017-11-06T16:06:17.188Z,1.8
2017-11-06T16:08:17.075Z,2.2
2017-11-06T16:10:17.944Z,2.1
2017-11-06T16:12:16.844Z,2.4
2017-11-06T16:14:16.732Z,2.3
2017-11-06T16:16:17.606Z,2
2017-11-06T16:18:18.489Z,2.4
2017-11-06T16:20:17.378Z,2.1
2017-11-06T16:22:17.260Z,2
2017-11-06T16:24:17.155Z,2.2
2017-11-06T16:26:17.029Z,1.9
2017-11-06T16:28:16.873Z,7.7
2017-11-06T16:30:16.753Z,5.2
2017-11-06T16:32:16.652Z,2.9
2017-11-06T16:34:17.492Z,2.5
2017-11-06T16:36:17.366Z,2.8
2017-11-06T16:38:17.250Z,2.5
2017-11-06T16:40:17.080Z,2.7
2017-11-06T16:42:16.959Z,2.4
2017-11-06T16:44:16.833Z,2.5
2017-11-06T16:46:16.697Z,2.5
2017-11-06T16:48:17.569Z,2.5
2017-11-06T16:50:17.434Z,3.1
2017-11-06T16:52:17.295Z,2.5
2017-11-06T16:54:17.129Z,4
2017-11-06T16:56:18.001Z,5.2
2017-11-06T16:58:16.854Z,6
2017-11-06T17:00:17.701Z,4.3
2017-11-06T17:02:17.573Z,4.7
2017-11-06T17:04:17.444Z,4.7
2017-11-06T17:06:17.284Z,5
2017-11-06T17:08:17.142Z,5
2017-11-06T17:12:17.842Z,4
2017-11-06T17:14:16.697Z,5.4
2017-11-06T17:16:17.517Z,5.7
2017-11-06T17:18:18.370Z,6.6
2017-11-06T17:20:17.226Z,5.9
2017-11-06T17:22:17.038Z,5.1
2017-11-06T17:24:16.865Z,4.2
2017-11-06T17:26:17.752Z,3.6
2017-11-06T17:28:20.583Z,3.4
2017-11-06T17:30:21.390Z,4.2
2017-11-06T17:32:17.238Z,3.8
2017-11-06T17:34:18.073Z,3.4
2017-11-06T17:36:16.901Z,3.8
2017-11-06T17:38:16.735Z,4
2017-11-06T17:40:17.569Z,3.8
2017-11-06T17:42:17.421Z,4.4
2017-11-06T17:44:17.250Z,3.9
2017-11-06T17:46:18.095Z,4.3
2017-11-06T17:48:20.930Z,4.7
2017-11-06T17:50:20.741Z,4.5
2017-11-06T17:52:17.573Z,6
2017-11-06T17:54:21.369Z,5
2017-11-06T17:56:18.219Z,5.2
2017-11-06T17:58:17.053Z,7
2017-11-06T18:00:17.870Z,6.7
2017-11-06T18:02:16.716Z,5.8
2017-11-06T18:04:21.517Z,5.9
2017-11-06T18:06:17.361Z,5.1
2017-11-06T18:08:21.157Z,5.7
2017-11-06T18:10:17.995Z,5.7
2017-11-06T18:12:20.781Z,6.4
2017-11-06T18:14:20.587Z,5.8
2017-11-06T18:16:17.404Z,5.5
2017-11-06T18:18:18.229Z,5.5
2017-11-06T18:20:21.029Z,6.6
2017-11-06T18:22:16.871Z,6.7
2017-11-06T18:24:17.682Z,6.9
2017-11-06T18:26:17.481Z,6.5
2017-11-06T18:28:17.312Z,6.9
2017-11-06T18:30:18.124Z,6.7
2017-11-06T18:32:16.947Z,6.8
2017-11-06T18:34:16.782Z,6
2017-11-06T18:36:17.608Z,6.6
2017-11-06T18:38:18.405Z,5.8
2017-11-06T18:40:17.247Z,6.7
2017-11-06T18:42:18.038Z,5.5
2017-11-06T18:44:20.842Z,5.8
2017-11-06T18:46:17.668Z,6.5
2017-11-06T18:48:21.449Z,6.2
2017-11-06T18:50:21.253Z,6.9
2017-11-06T18:52:21.057Z,6.9
2017-11-06T18:54:16.880Z,6.7
2017-11-06T18:56:17.679Z,6.8
2017-11-06T18:58:21.472Z,6.3
2017-11-06T19:00:17.320Z,7.8
2017-11-06T19:02:21.122Z,6.4
2017-11-06T19:04:20.932Z,6.7
2017-11-06T19:06:17.745Z,7.6
2017-11-06T19:08:20.546Z,6.7
2017-11-06T19:10:17.357Z,7.6
2017-11-06T19:12:17.176Z,7.2
2017-11-06T19:14:16.997Z,7.2
2017-11-06T19:16:17.822Z,6.8
2017-11-06T19:18:17.647Z,6.6
2017-11-06T19:20:18.455Z,6.6
2017-11-06T19:22:21.216Z,7.4
2017-11-06T19:24:21.026Z,7.6
2017-11-06T19:26:17.865Z,6.9
2017-11-06T19:28:20.646Z,7.3
2017-11-06T19:30:17.499Z,7.1
2017-11-06T19:32:18.293Z,7.2
2017-11-06T19:34:21.090Z,7
2017-11-06T19:36:16.948Z,7.6
2017-11-06T19:38:17.729Z,7.5
2017-11-06T19:40:17.578Z,6.9
2017-11-06T19:42:21.381Z,7.2
2017-11-06T19:44:18.191Z,7
2017-11-06T19:46:17.005Z,8.1
2017-11-06T19:48:16.842Z,8.2
2017-11-06T19:50:17.618Z,9.1
2017-11-06T19:52:21.429Z,7.7
2017-11-06T19:54:17.248Z,8
2017-11-06T19:56:17.044Z,7.7
2017-11-06T19:58:17.849Z,8.1
2017-11-06T20:00:20.649Z,8
2017-11-06T20:02:17.463Z,8.5
2017-11-06T20:04:21.238Z,9.2
2017-11-06T20:06:18.071Z,9.5
2017-11-06T20:08:20.873Z,9.7
2017-11-06T20:10:17.661Z,10.7
2017-11-06T20:12:21.439Z,10.5
2017-11-06T20:14:17.271Z,9.8
2017-11-06T20:16:18.070Z,10.5
2017-11-06T20:18:17.840Z,10
2017-11-06T20:20:20.628Z,8.8
2017-11-06T20:22:21.434Z,8.4
2017-11-06T20:24:18.206Z,8.5
2017-11-06T20:26:17.979Z,8.5
2017-11-06T20:28:17.749Z,8.8
2017-11-06T20:30:17.553Z,7.7
2017-11-06T20:32:18.328Z,7.9
2017-11-06T20:34:18.092Z,8.3
2017-11-06T20:36:17.857Z,6.9
2017-11-06T20:38:17.647Z,9.1
2017-11-06T20:40:17.414Z,7
2017-11-06T20:42:18.193Z,7
2017-11-06T20:44:17.982Z,7.7
2017-11-06T20:46:17.753Z,6.5
2017-11-06T20:48:17.557Z,7.2
2017-11-06T20:50:18.322Z,7.3
2017-11-06T20:52:18.097Z,6.9
2017-11-06T20:54:17.881Z,7.1
2017-11-06T20:56:17.677Z,6.1
2017-11-06T20:58:18.452Z,7
2017-11-06T21:00:18.239Z,6.7
2017-11-06T21:02:18.014Z,6
2017-11-06T21:04:20.790Z,6.9
2017-11-06T21:06:17.578Z,6.1
2017-11-06T21:08:21.357Z,7.1
2017-11-06T21:10:17.127Z,6.8
2017-11-06T21:12:17.923Z,7.3
2017-11-06T21:14:17.692Z,7.3
2017-11-06T21:16:17.473Z,6.9
2017-11-06T21:18:18.264Z,6.5
2017-11-06T21:20:18.033Z,6.4
2017-11-06T21:22:17.841Z,6.5
2017-11-06T21:24:20.630Z,6.6
2017-11-06T21:26:17.459Z,6.2
2017-11-06T21:28:18.240Z,6.1
2017-11-06T21:30:18.040Z,6.2
2017-11-06T21:32:17.826Z,6.2
2017-11-06T21:34:20.614Z,6.1
2017-11-06T21:36:17.437Z,6.7
2017-11-06T21:38:18.224Z,6
2017-11-06T21:40:17.029Z,6.6
2017-11-06T21:42:17.820Z,6.6
2017-11-06T21:44:20.583Z,6.1
2017-11-06T21:46:17.389Z,6
2017-11-06T21:48:21.171Z,5.7
2017-11-06T21:50:17.955Z,6.4
2017-11-06T21:52:20.754Z,6.2
2017-11-06T21:54:20.552Z,4.9
2017-11-06T21:56:21.331Z,5.6
2017-11-06T21:58:18.128Z,6
2017-11-06T22:00:17.901Z,5.7
2017-11-06T22:02:20.656Z,5.8
2017-11-06T22:04:18.453Z,5.2
2017-11-06T22:06:17.228Z,5.9
2017-11-06T22:08:18.006Z,5.8
2017-11-06T22:10:17.793Z,6.8
2017-11-06T22:12:17.560Z,5.7
2017-11-06T22:14:18.328Z,5.9
2017-11-06T22:16:18.108Z,6.7
2017-11-06T22:18:17.887Z,6.5
2017-11-06T22:20:17.646Z,6
2017-11-06T22:22:18.413Z,6
2017-11-06T22:24:21.213Z,6
2017-11-06T22:26:18.022Z,6.4
2017-11-06T22:28:20.816Z,6.6
2017-11-06T22:30:17.609Z,6
2017-11-06T22:32:18.380Z,6.3
2017-11-06T22:34:18.149Z,6.3
2017-11-06T22:36:20.928Z,7.1
2017-11-06T22:38:17.719Z,5.6
2017-11-06T22:40:17.498Z,6.5
2017-11-06T22:42:18.260Z,7.3
2017-11-06T22:44:18.030Z,6.7
2017-11-06T22:46:17.822Z,7
2017-11-06T22:48:17.587Z,6.8
2017-11-06T22:50:18.356Z,6.1
2017-11-06T22:52:21.129Z,5.6
2017-11-06T22:54:17.915Z,6.2
2017-11-06T22:56:17.711Z,6.2
2017-11-06T22:58:17.467Z,6.2
2017-11-06T23:00:21.223Z,5.9
2017-11-06T23:02:18.012Z,6.9
2017-11-06T23:04:17.779Z,6.2
2017-11-06T23:06:17.571Z,6.5
2017-11-06T23:08:18.325Z,6.1
2017-11-06T23:10:17.110Z,6
2017-11-06T23:12:17.874Z,6.6
2017-11-06T23:14:17.646Z,5.8
2017-11-06T23:16:17.447Z,7.2
2017-11-06T23:18:18.241Z,7.2
2017-11-06T23:20:17.977Z,6.8
2017-11-06T23:22:17.752Z,6.5
2017-11-06T23:24:17.520Z,7.3
2017-11-06T23:26:17.299Z,6.8
2017-11-06T23:28:18.089Z,7.2
2017-11-06T23:30:17.859Z,6.9
2017-11-06T23:32:17.645Z,7.1
2017-11-06T23:34:18.393Z,7.2
2017-11-06T23:36:17.192Z,7.3
2017-11-06T23:38:17.957Z,7.4
2017-11-06T23:40:17.734Z,7.3
2017-11-06T23:42:17.512Z,6.7
2017-11-06T23:44:18.305Z,6.9
2017-11-06T23:46:17.077Z,7.1
2017-11-06T23:48:17.862Z,7.3
2017-11-06T23:50:17.627Z,7.3
2017-11-06T23:52:18.389Z,6.9
2017-11-06T23:54:18.182Z,6.2
2017-11-06T23:56:16.957Z,6.7
2017-11-06T23:58:20.729Z,7.1
